createdAt,value
2022-09-14T00:04:23.112Z,7.05
2022-09-14T00:09:26.595Z,5.72
2022-09-14T00:14:29.349Z,5.55
2022-09-14T00:19:32.162Z,4.68
2022-09-14T00:24:35.473Z,4.97
2022-09-14T00:29:38.435Z,5.35
2022-09-14T00:34:41.100Z,5.18
2022-09-14T00:39:44.138Z,5.25
2022-09-14T00:44:46.928Z,5.50
2022-09-14T00:49:49.835Z,5.90
2022-09-14T00:54:56.316Z,6.18
2022-09-14T00:59:59.380Z,5.47
2022-09-14T01:05:02.751Z,5.22
2022-09-14T01:10:31.892Z,5.05
2022-09-14T01:15:57.924Z,4.88
2022-09-14T01:21:11.132Z,6.28
2022-09-14T01:26:20.792Z,7.93
2022-09-14T01:31:45.569Z,7.40
2022-09-14T01:36:52.551Z,7.68
2022-09-14T01:41:56.613Z,8.07
2022-09-14T01:47:06.907Z,9.35
2022-09-14T01:52:19.988Z,7.80
2022-09-14T01:57:36.752Z,7.55
2022-09-14T02:02:42.082Z,7.63
2022-09-14T02:07:45.191Z,7.57
2022-09-14T02:12:48.964Z,7.72
2022-09-14T02:17:51.821Z,6.15
2022-09-14T02:22:54.614Z,7.07
2022-09-14T02:27:57.279Z,6.35
2022-09-14T02:33:08.709Z,6.45
2022-09-14T02:38:28.485Z,5.85
2022-09-14T02:43:40.351Z,6.55
2022-09-14T02:48:49.420Z,6.65
2022-09-14T02:54:06.727Z,8.25
2022-09-14T02:59:09.566Z,7.47
2022-09-14T03:04:12.294Z,5.72
2022-09-14T03:09:15.003Z,4.50
2022-09-14T03:14:17.705Z,4.47
2022-09-14T03:19:20.492Z,4.25
2022-09-14T03:24:23.196Z,4.90
2022-09-14T03:29:25.943Z,4.50
2022-09-14T03:34:28.642Z,3.55
2022-09-14T03:39:31.342Z,3.15
2022-09-14T03:44:34.017Z,3.30
2022-09-14T03:49:36.735Z,4.05
2022-09-14T03:54:39.399Z,5.70
2022-09-14T03:59:43.872Z,4.15
2022-09-14T04:04:48.595Z,3.95
2022-09-14T04:09:51.235Z,5.43
2022-09-14T04:14:54.101Z,4.90
2022-09-14T04:19:56.777Z,6.07
2022-09-14T04:24:59.460Z,5.32
2022-09-14T04:30:02.366Z,5.35
2022-09-14T04:35:06.299Z,6.70
2022-09-14T04:40:09.611Z,7.35
2022-09-14T04:45:13.245Z,7.18
2022-09-14T04:50:16.022Z,6.30
2022-09-14T04:55:18.655Z,5.55
2022-09-14T05:00:21.361Z,4.05
2022-09-14T05:05:24.076Z,2.20
2022-09-14T05:10:26.697Z,0.90
2022-09-14T05:15:29.362Z,1.52
2022-09-14T05:20:31.924Z,1.67
2022-09-14T05:25:34.639Z,5.50
2022-09-14T05:30:41.315Z,4.65
2022-09-14T05:35:44.333Z,4.28
2022-09-14T05:40:46.995Z,4.40
2022-09-14T05:45:50.239Z,3.28
2022-09-14T05:51:02.214Z,2.97
2022-09-14T05:56:07.713Z,3.50
2022-09-14T06:06:16.652Z,4.22
2022-09-14T06:16:24.220Z,4.50
2022-09-14T06:21:34.882Z,6.07
2022-09-14T06:26:37.820Z,6.47
2022-09-14T06:31:40.542Z,5.47
2022-09-14T06:36:43.710Z,4.63
2022-09-14T06:41:46.573Z,3.60
2022-09-14T06:46:54.828Z,3.03
2022-09-14T06:51:57.898Z,2.92
2022-09-14T06:57:00.612Z,3.35
2022-09-14T07:02:03.333Z,2.92
2022-09-14T07:07:06.325Z,2.60
2022-09-14T07:12:10.184Z,2.92
2022-09-14T07:17:14.831Z,2.40
2022-09-14T07:22:17.496Z,2.85
2022-09-14T07:27:20.149Z,2.63
2022-09-14T07:32:23.092Z,2.80
2022-09-14T07:37:25.831Z,2.70
2022-09-14T07:42:28.539Z,2.60
2022-09-14T07:47:31.807Z,2.38
2022-09-14T07:52:38.604Z,2.53
2022-09-14T07:57:55.556Z,2.38
2022-09-14T08:03:00.456Z,2.03
2022-09-14T08:08:03.294Z,2.40
2022-09-14T08:13:05.859Z,2.50
2022-09-14T08:18:08.514Z,1.63
2022-09-14T08:23:11.555Z,1.50
2022-09-14T08:28:14.168Z,2.00
2022-09-14T08:33:16.775Z,1.77
2022-09-14T08:38:21.301Z,1.83
2022-09-14T08:43:25.932Z,1.75
2022-09-14T08:48:42.347Z,2.40
2022-09-14T08:53:45.841Z,1.63
2022-09-14T08:59:07.648Z,2.10
2022-09-14T09:04:10.253Z,1.95
2022-09-14T09:09:38.762Z,2.05
2022-09-14T09:14:45.201Z,1.95
2022-09-14T09:20:09.668Z,2.00
2022-09-14T09:25:23.638Z,2.50
2022-09-14T09:30:26.322Z,1.95
2022-09-14T09:35:29.292Z,1.80
2022-09-14T09:40:45.252Z,1.88
2022-09-14T09:45:54.003Z,2.05
2022-09-14T09:51:04.225Z,1.98
2022-09-14T09:56:07.206Z,1.70
2022-09-14T10:01:30.645Z,1.75
2022-09-14T10:06:46.427Z,1.80
2022-09-14T10:12:00.084Z,2.95
2022-09-14T10:17:29.239Z,1.83
2022-09-14T10:22:36.035Z,1.70
2022-09-14T10:27:48.776Z,1.90
2022-09-14T10:32:57.347Z,1.50
2022-09-14T10:38:05.734Z,1.90
2022-09-14T10:43:16.576Z,1.90
2022-09-14T10:48:41.516Z,2.22
2022-09-14T10:54:00.695Z,1.33
2022-09-14T10:59:19.829Z,0.98
2022-09-14T11:04:46.835Z,1.13
2022-09-14T11:10:17.715Z,0.80
2022-09-14T11:15:38.574Z,1.88
2022-09-14T11:20:46.806Z,3.47
2022-09-14T11:25:57.088Z,5.13
2022-09-14T11:31:38.554Z,6.75
2022-09-14T11:36:45.694Z,7.22
2022-09-14T11:41:48.330Z,7.32
2022-09-14T11:47:10.699Z,8.20
2022-09-14T11:52:44.552Z,5.50
2022-09-14T11:57:47.904Z,5.30
2022-09-14T12:03:05.676Z,5.85
2022-09-14T12:08:31.513Z,5.38
2022-09-14T12:13:35.037Z,6.90
2022-09-14T12:18:39.723Z,8.43
2022-09-14T12:23:44.722Z,10.32
2022-09-14T12:28:50.668Z,9.32
2022-09-14T12:34:06.702Z,9.18
2022-09-14T12:39:23.615Z,9.23
2022-09-14T12:44:40.346Z,11.32
2022-09-14T12:49:43.147Z,10.73
2022-09-14T12:54:56.228Z,11.18
2022-09-14T13:00:16.098Z,12.43
2022-09-14T13:05:24.082Z,12.82
2022-09-14T13:10:33.918Z,13.98
2022-09-14T13:15:49.479Z,18.98
2022-09-14T13:20:54.605Z,28.25
2022-09-14T13:25:58.369Z,38.83
2022-09-14T13:31:02.299Z,30.50
2022-09-14T13:36:06.422Z,30.08
2022-09-14T13:41:12.097Z,30.30
2022-09-14T13:46:19.643Z,29.67
2022-09-14T13:51:25.481Z,36.53
2022-09-14T13:56:34.260Z,34.40
2022-09-14T14:01:40.841Z,41.03
2022-09-14T14:06:43.721Z,34.53
2022-09-14T14:11:53.922Z,34.65
2022-09-14T14:17:30.574Z,29.52
2022-09-14T14:22:35.965Z,26.20
2022-09-14T14:32:41.852Z,24.35
2022-09-14T14:37:44.659Z,20.30
2022-09-14T14:42:47.956Z,20.55
2022-09-14T14:47:53.820Z,20.98
2022-09-14T14:52:56.586Z,21.25
2022-09-14T14:58:01.680Z,22.48
2022-09-14T15:03:04.877Z,24.77
2022-09-14T15:08:07.765Z,24.83
2022-09-14T15:13:12.538Z,24.67
2022-09-14T15:18:15.263Z,23.93
2022-09-14T15:23:18.135Z,24.00
2022-09-14T15:28:21.076Z,27.13
2022-09-14T15:33:23.722Z,39.17
2022-09-14T15:38:26.780Z,37.17
2022-09-14T15:43:29.535Z,35.17
2022-09-14T15:48:32.247Z,33.55
2022-09-14T15:53:38.034Z,33.42
2022-09-14T15:58:44.766Z,32.85
2022-09-14T16:03:50.053Z,33.38
2022-09-14T16:08:53.334Z,33.25
2022-09-14T16:13:56.461Z,28.33
2022-09-14T16:18:59.304Z,29.60
2022-09-14T16:24:04.128Z,28.55
2022-09-14T16:29:08.892Z,27.30
2022-09-14T16:34:17.369Z,27.25
2022-09-14T16:39:25.584Z,26.05
2022-09-14T16:44:29.187Z,29.52
2022-09-14T16:49:32.029Z,30.13
2022-09-14T16:54:35.446Z,26.38
2022-09-14T16:59:38.191Z,28.83
2022-09-14T17:04:40.932Z,27.63
2022-09-14T17:09:44.385Z,26.83
2022-09-14T17:14:48.230Z,30.13
2022-09-14T17:19:50.873Z,28.83
2022-09-14T17:24:53.611Z,27.73
2022-09-14T17:29:56.369Z,27.05
2022-09-14T17:34:59.005Z,27.13
2022-09-14T17:40:02.076Z,28.25
2022-09-14T17:45:06.998Z,25.52
2022-09-14T17:50:10.178Z,24.67
2022-09-14T17:55:12.886Z,25.15
2022-09-14T18:00:16.030Z,18.05
2022-09-14T18:05:19.320Z,13.63
2022-09-14T18:10:22.020Z,14.55
2022-09-14T18:15:24.735Z,16.48
2022-09-14T18:20:27.475Z,17.33
2022-09-14T18:25:30.354Z,15.77
2022-09-14T18:30:33.490Z,15.73
2022-09-14T18:35:39.521Z,15.38
2022-09-14T18:40:42.451Z,15.80
2022-09-14T18:45:46.274Z,17.25
2022-09-14T18:50:48.963Z,17.27
2022-09-14T18:55:51.610Z,20.30
2022-09-14T19:00:54.295Z,20.90
2022-09-14T19:05:56.998Z,19.33
2022-09-14T19:11:10.993Z,18.98
2022-09-14T19:16:18.705Z,20.25
2022-09-14T19:21:25.434Z,23.92
2022-09-14T19:26:31.034Z,21.00
2022-09-14T19:31:34.012Z,20.52
2022-09-14T19:36:36.740Z,21.67
2022-09-14T19:41:39.881Z,20.00
2022-09-14T19:46:42.725Z,19.00
2022-09-14T19:51:45.955Z,19.77
2022-09-14T19:56:48.901Z,20.27
2022-09-14T20:01:51.833Z,20.17
2022-09-14T20:06:56.769Z,19.70
2022-09-14T20:11:59.584Z,19.23
2022-09-14T20:17:02.551Z,20.00
2022-09-14T20:22:05.258Z,19.48
2022-09-14T20:27:08.100Z,17.60
2022-09-14T20:32:10.933Z,17.17
2022-09-14T20:37:13.661Z,16.90
2022-09-14T20:42:16.516Z,19.60
2022-09-14T20:47:19.339Z,18.08
2022-09-14T20:52:22.148Z,18.25
2022-09-14T20:57:24.955Z,17.63
2022-09-14T21:02:27.719Z,15.18
2022-09-14T21:07:30.781Z,15.68
2022-09-14T21:12:33.468Z,16.17
2022-09-14T21:17:36.208Z,16.40
2022-09-14T21:22:38.893Z,16.15
2022-09-14T21:27:41.722Z,15.43
2022-09-14T21:32:49.254Z,14.90
2022-09-14T21:37:52.196Z,20.85
2022-09-14T21:42:54.851Z,17.50
2022-09-14T21:47:57.487Z,15.55
2022-09-14T21:53:00.136Z,15.93
2022-09-14T21:58:02.832Z,13.68
2022-09-14T22:03:05.572Z,12.57
2022-09-14T22:08:08.298Z,13.38
2022-09-14T22:13:11.365Z,13.40
2022-09-14T22:18:14.764Z,13.45
2022-09-14T22:23:17.443Z,13.20
2022-09-14T22:28:20.927Z,14.63
2022-09-14T22:33:24.350Z,14.75
2022-09-14T22:38:29.780Z,14.75
2022-09-14T22:43:34.245Z,15.02
2022-09-14T22:48:37.759Z,15.13
2022-09-14T22:53:40.527Z,15.13
2022-09-14T22:58:43.965Z,14.82
2022-09-14T23:03:47.348Z,14.43
2022-09-14T23:08:51.271Z,14.05
2022-09-14T23:13:54.411Z,21.08
2022-09-14T23:19:02.381Z,12.55
2022-09-14T23:24:06.416Z,12.13
2022-09-14T23:29:13.733Z,11.23
2022-09-14T23:34:17.131Z,11.38
2022-09-14T23:39:19.923Z,10.57
2022-09-14T23:44:22.843Z,9.52
2022-09-14T23:49:26.034Z,8.75
2022-09-14T23:54:28.926Z,9.35
2022-09-14T23:59:31.687Z,9.88
